Time;durP1;ratioP1;P1;durP2;ratioP2;P2;SDS_P1;SDS_P2;PMS_P1;PMS_P2;Temp;Humidity;BMP_temperature;BMP_pressure;BME280_temperature;BME280_humidity;BME280_pressure;Samples;Min_cycle;Max_cycle;Signal;HPM_P1;HPM_P2
2021/09/29 00:00:31;;;;;;;10.77;3.23;;;;;;;14.05;nan;101496.53;5073123;28;20167;-74
2021/09/29 00:02:56;;;;;;;12.30;3.53;;;;;;;13.96;nan;101494.38;5073097;28;20203;-74
2021/09/29 00:05:21;;;;;;;15.73;4.00;;;;;;;13.98;nan;101500.53;5073261;28;20206;-74
2021/09/29 00:07:47;;;;;;;10.27;4.57;;;;;;;14.02;nan;101495.84;5055017;28;20181;-74
2021/09/29 00:10:12;;;;;;;12.80;3.90;;;;;;;14.01;nan;101495.00;5055010;28;20202;-74
2021/09/29 00:12:38;;;;;;;15.13;5.10;;;;;;;14.05;nan;101499.22;5074197;28;20194;-74
2021/09/29 00:15:09;;;;;;;13.33;4.90;;;;;;;14.07;nan;101493.78;5055405;28;20166;-74
2021/09/29 00:17:35;;;;;;;14.47;5.27;;;;;;;14.04;nan;101489.44;5073126;28;20585;-74
2021/09/29 00:20:01;;;;;;;11.87;4.03;;;;;;;13.98;nan;101487.13;5073121;28;20224;-73
2021/09/29 00:22:26;;;;;;;9.70;4.00;;;;;;;13.85;nan;101487.91;5054761;28;20241;-74
2021/09/29 00:24:51;;;;;;;5.30;2.60;;;;;;;13.67;nan;101473.69;5073145;28;20560;-74
2021/09/29 00:27:16;;;;;;;11.73;4.10;;;;;;;13.57;nan;101481.38;5054966;28;20625;-74
2021/09/29 00:29:42;;;;;;;11.43;3.90;;;;;;;13.54;nan;101478.88;5072662;28;20175;-74
2021/09/29 00:32:08;;;;;;;10.13;3.70;;;;;;;13.52;nan;101477.22;5055156;28;20192;-74
2021/09/29 00:34:36;;;;;;;11.00;3.80;;;;;;;13.52;nan;101482.59;5072885;28;20617;-74
2021/09/29 00:37:02;;;;;;;15.27;4.03;;;;;;;13.53;nan;101474.47;5072710;28;20167;-74
2021/09/29 00:39:27;;;;;;;8.60;3.53;;;;;;;13.51;nan;101475.50;5072779;28;20240;-74
2021/09/29 00:41:52;;;;;;;9.53;3.90;;;;;;;13.48;nan;101465.81;5072383;28;20174;-74
2021/09/29 00:44:18;;;;;;;10.63;4.30;;;;;;;13.48;nan;101470.31;5072356;28;20208;-73
2021/09/29 00:46:44;;;;;;;9.97;4.37;;;;;;;13.49;nan;101462.19;5072247;28;20174;-74
2021/09/29 00:49:09;;;;;;;7.00;4.30;;;;;;;13.54;nan;101468.16;5075649;28;20198;-73
2021/09/29 00:51:36;;;;;;;8.63;4.47;;;;;;;13.65;nan;101467.53;5058651;28;20552;-74
2021/09/29 00:54:01;;;;;;;10.50;4.50;;;;;;;13.71;nan;101468.06;5042414;28;20243;-74
2021/09/29 00:56:27;;;;;;;8.83;4.07;;;;;;;13.77;nan;101456.16;5058453;28;20182;-75
2021/09/29 00:58:52;;;;;;;10.13;4.13;;;;;;;13.77;nan;101457.00;5076199;28;20702;-74
2021/09/29 01:01:18;;;;;;;10.10;4.73;;;;;;;13.82;nan;101448.69;5058313;28;20183;-74
2021/09/29 01:03:45;;;;;;;14.03;3.93;;;;;;;13.88;nan;101453.72;5058268;28;20203;-74
2021/09/29 01:06:38;;;;;;;10.30;4.53;;;;;;;13.94;nan;101447.13;5058267;28;20214;-76
2021/09/29 01:09:24;;;;;;;11.37;4.53;;;;;;;13.98;nan;101449.53;5070257;28;20233;-73
2021/09/29 01:12:10;;;;;;;8.03;3.50;;;;;;;14.03;nan;101443.91;5057963;28;20183;-74
2021/09/29 01:14:52;;;;;;;12.67;4.37;;;;;;;14.07;nan;101443.63;5058484;28;20159;-74
2021/09/29 01:17:19;;;;;;;9.27;3.80;;;;;;;14.06;nan;101436.53;5057962;28;20155;-74
2021/09/29 01:20:09;;;;;;;8.17;2.80;;;;;;;14.16;nan;101438.72;5057856;28;20178;-74
2021/09/29 01:23:08;;;;;;;7.27;3.20;;;;;;;14.19;nan;101451.97;5075844;28;20201;-74
2021/09/29 01:25:40;;;;;;;8.97;3.17;;;;;;;14.20;nan;101438.44;5076190;28;20274;-75
2021/09/29 01:28:05;;;;;;;8.20;3.40;;;;;;;14.06;nan;101433.84;5057914;28;20685;-75
2021/09/29 01:30:34;;;;;;;6.03;3.40;;;;;;;14.07;nan;101432.03;5057747;28;20191;-75
2021/09/29 01:33:00;;;;;;;6.97;3.70;;;;;;;14.11;nan;101441.63;5057775;28;20216;-75
2021/09/29 01:35:26;;;;;;;9.13;3.77;;;;;;;14.21;nan;101433.94;5057578;28;20167;-75
2021/09/29 01:37:51;;;;;;;6.90;3.60;;;;;;;14.22;nan;101425.78;5057679;28;20175;-74
2021/09/29 01:40:17;;;;;;;5.87;4.30;;;;;;;14.06;nan;101433.84;5058031;28;20506;-75
2021/09/29 01:42:42;;;;;;;7.23;4.00;;;;;;;14.17;nan;101433.25;5075408;28;20190;-75
2021/09/29 01:45:08;;;;;;;4.30;3.87;;;;;;;14.05;nan;101425.91;5075229;28;20256;-74
2021/09/29 01:47:33;;;;;;;8.60;4.10;;;;;;;14.12;nan;101419.22;5057350;28;20176;-75
2021/09/29 01:50:00;;;;;;;8.37;4.10;;;;;;;14.18;nan;101418.88;5057498;28;20171;-74
2021/09/29 01:52:28;;;;;;;6.23;3.70;;;;;;;14.24;nan;101415.81;5057617;28;20197;-74
2021/09/29 01:54:55;;;;;;;8.63;3.40;;;;;;;14.26;nan;101410.38;5057451;28;20229;-74
2021/09/29 01:57:20;;;;;;;5.73;3.40;;;;;;;14.26;nan;101402.31;5057898;28;20262;-75
2021/09/29 01:59:46;;;;;;;4.90;2.90;;;;;;;14.35;nan;101404.44;5087202;28;20193;-75
2021/09/29 02:02:12;;;;;;;3.67;2.90;;;;;;;14.31;nan;101402.91;5069207;28;20288;-75
2021/09/29 02:04:45;;;;;;;6.57;3.23;;;;;;;14.40;nan;101403.22;5053447;28;20583;-75
2021/09/29 02:07:10;;;;;;;6.13;3.10;;;;;;;14.29;nan;101394.06;5070858;28;20163;-75
2021/09/29 02:09:36;;;;;;;5.50;3.03;;;;;;;13.97;nan;101394.16;5062990;28;20169;-75
2021/09/29 02:12:01;;;;;;;5.83;2.37;;;;;;;13.88;nan;101378.59;5074795;28;20175;-75
2021/09/29 02:14:27;;;;;;;5.50;2.67;;;;;;;13.83;nan;101382.50;5056888;28;20171;-75
2021/09/29 02:16:54;;;;;;;6.60;2.77;;;;;;;13.85;nan;101378.75;5075014;28;20171;-75
2021/09/29 02:19:20;;;;;;;5.20;2.63;;;;;;;13.79;nan;101370.22;5056992;28;20230;-74
2021/09/29 02:21:46;;;;;;;8.13;3.50;;;;;;;13.64;nan;101380.84;5057039;28;20180;-75
2021/09/29 02:24:12;;;;;;;7.13;2.80;;;;;;;13.62;nan;101371.16;5056551;28;20248;-75
2021/09/29 02:26:38;;;;;;;6.93;3.37;;;;;;;13.66;nan;101365.53;5074524;28;20258;-74
2021/09/29 02:29:04;;;;;;;8.07;3.17;;;;;;;13.70;nan;101363.53;5039922;28;20175;-74
2021/09/29 02:31:29;;;;;;;7.40;3.30;;;;;;;13.71;nan;101370.63;5056863;28;20658;-75
2021/09/29 02:33:55;;;;;;;7.60;3.77;;;;;;;13.73;nan;101372.25;5074488;28;20191;-74
2021/09/29 02:36:21;;;;;;;9.50;3.63;;;;;;;13.77;nan;101370.31;5074278;28;20591;-75
2021/09/29 02:38:46;;;;;;;6.90;3.70;;;;;;;13.73;nan;101374.94;5056354;28;20514;-74
2021/09/29 02:41:12;;;;;;;5.50;3.40;;;;;;;13.70;nan;101375.13;5074240;28;20167;-74
2021/09/29 02:43:37;;;;;;;6.87;3.80;;;;;;;13.71;nan;101368.81;5056178;28;20273;-74
2021/09/29 02:46:03;;;;;;;9.63;3.80;;;;;;;13.64;nan;101369.25;5074395;28;20289;-75
2021/09/29 02:48:28;;;;;;;6.23;3.63;;;;;;;13.59;nan;101365.97;5056722;28;20257;-74
2021/09/29 02:50:54;;;;;;;7.17;3.57;;;;;;;13.55;nan;101359.91;5056380;28;20247;-74
2021/09/29 02:53:19;;;;;;;6.87;3.90;;;;;;;13.56;nan;101358.97;5074171;28;20186;-75
2021/09/29 02:55:44;;;;;;;5.73;4.13;;;;;;;13.62;nan;101360.44;5056703;28;20171;-74
2021/09/29 02:58:10;;;;;;;8.53;4.63;;;;;;;13.65;nan;101370.97;5056166;28;20175;-74
2021/09/29 03:00:35;;;;;;;9.40;5.00;;;;;;;13.67;nan;101361.03;5074485;28;20182;-74
2021/09/29 03:03:00;;;;;;;10.87;4.90;;;;;;;13.65;nan;101365.63;5057122;28;20217;-74
2021/09/29 03:05:26;;;;;;;7.97;4.47;;;;;;;13.60;nan;101354.28;5056003;28;20654;-75
2021/09/29 03:07:51;;;;;;;8.03;4.77;;;;;;;13.57;nan;101352.66;5074080;28;20171;-75
2021/09/29 03:10:16;;;;;;;7.60;4.57;;;;;;;13.59;nan;101350.75;5055000;28;20167;-74
2021/09/29 03:12:42;;;;;;;11.47;5.67;;;;;;;13.54;nan;101351.97;5039013;28;20703;-75
2021/09/29 03:15:07;;;;;;;8.77;4.70;;;;;;;13.48;nan;101347.81;5073831;28;20174;-74
2021/09/29 03:17:32;;;;;;;11.60;4.27;;;;;;;13.44;nan;101343.59;5073516;28;20305;-75
2021/09/29 03:19:58;;;;;;;7.13;4.63;;;;;;;13.33;nan;101349.53;5073649;28;20171;-75
2021/09/29 03:22:23;;;;;;;8.20;4.87;;;;;;;13.29;nan;101352.47;5055793;28;20541;-75
2021/09/29 03:24:48;;;;;;;7.93;4.83;;;;;;;13.22;nan;101348.41;5073976;28;20703;-75
2021/09/29 03:27:14;;;;;;;9.70;4.30;;;;;;;12.96;nan;101345.31;5073754;28;20537;-74
2021/09/29 03:29:39;;;;;;;17.27;4.97;;;;;;;12.97;nan;101348.84;5073601;28;20163;-74
2021/09/29 03:32:04;;;;;;;9.03;4.77;;;;;;;13.04;nan;101352.94;5055591;28;20167;-74
2021/09/29 03:34:30;;;;;;;11.60;4.33;;;;;;;12.99;nan;101355.00;5055486;28;20174;-74
2021/09/29 03:36:55;;;;;;;10.87;4.30;;;;;;;12.84;nan;101341.50;5057960;28;20175;-75
2021/09/29 03:39:20;;;;;;;8.40;4.53;;;;;;;12.83;nan;101339.75;5055827;28;20571;-74
2021/09/29 03:41:46;;;;;;;6.23;4.20;;;;;;;12.76;nan;101350.91;5055783;28;20167;-73
2021/09/29 03:44:11;;;;;;;7.40;4.63;;;;;;;12.80;nan;101334.56;5073109;28;20676;-74
2021/09/29 03:46:37;;;;;;;13.03;4.97;;;;;;;12.78;nan;101338.28;5073591;28;20218;-74
2021/09/29 03:49:04;;;;;;;7.97;4.67;;;;;;;12.72;nan;101333.25;5074777;28;20167;-73
2021/09/29 03:51:29;;;;;;;10.17;4.53;;;;;;;12.61;nan;101335.63;5057576;28;20166;-75
2021/09/29 03:53:55;;;;;;;6.10;4.07;;;;;;;12.63;nan;101331.91;5058745;28;20198;-75
2021/09/29 03:56:20;;;;;;;7.27;3.80;;;;;;;12.56;nan;101335.00;5073883;28;20175;-75
2021/09/29 03:58:45;;;;;;;8.77;4.07;;;;;;;12.42;nan;101320.56;5056130;28;20568;-75
2021/09/29 04:01:10;;;;;;;10.97;4.80;;;;;;;12.34;nan;101324.59;5056522;28;20171;-75
2021/09/29 04:03:36;;;;;;;9.10;4.73;;;;;;;12.53;nan;101320.84;5056531;28;20206;-75
2021/09/29 04:06:01;;;;;;;13.50;5.57;;;;;;;12.69;nan;101315.56;5055817;28;20734;-75
2021/09/29 04:08:27;;;;;;;12.80;5.60;;;;;;;12.75;nan;101315.22;5073186;28;20178;-75
2021/09/29 04:10:55;;;;;;;8.63;6.03;;;;;;;12.77;nan;101312.44;5073342;28;20171;-74
2021/09/29 04:13:20;;;;;;;13.70;6.77;;;;;;;12.64;nan;101320.28;5073924;28;20190;-73
2021/09/29 04:15:45;;;;;;;15.50;6.73;;;;;;;12.64;nan;101314.94;5084391;28;20163;-74
2021/09/29 04:18:11;;;;;;;12.43;6.33;;;;;;;12.64;nan;101314.94;5058864;28;20171;-74
2021/09/29 04:20:36;;;;;;;26.10;6.10;;;;;;;12.36;nan;101307.50;5056553;28;20541;-74
2021/09/29 04:23:01;;;;;;;9.90;5.33;;;;;;;12.52;nan;101312.91;5056911;28;20190;-75
2021/09/29 04:25:27;;;;;;;54.20;6.83;;;;;;;12.55;nan;101303.84;5074769;28;20252;-73
2021/09/29 04:27:53;;;;;;;16.17;6.67;;;;;;;12.73;nan;101300.19;5074716;28;20175;-75
2021/09/29 04:30:18;;;;;;;13.17;6.57;;;;;;;12.76;nan;101302.69;5073793;28;20167;-76
2021/09/29 04:32:44;;;;;;;36.40;7.40;;;;;;;12.59;nan;101305.41;5073677;28;20198;-75
2021/09/29 04:35:10;;;;;;;80.73;6.70;;;;;;;12.69;nan;101309.34;5056243;28;20178;-76
2021/09/29 04:37:36;;;;;;;6.63;4.87;;;;;;;12.78;nan;101312.38;5055120;28;20676;-76
2021/09/29 04:40:02;;;;;;;39.77;5.87;;;;;;;12.80;nan;101313.16;5055636;28;20197;-74
2021/09/29 04:42:27;;;;;;;8.07;5.57;;;;;;;12.80;nan;101302.44;5073756;28;20197;-75
2021/09/29 04:44:53;;;;;;;7.97;5.73;;;;;;;12.86;nan;101305.72;5073465;28;20191;-74
2021/09/29 04:47:18;;;;;;;6.20;5.00;;;;;;;12.80;nan;101297.06;5072948;28;20178;-75
2021/09/29 04:49:43;;;;;;;19.70;5.57;;;;;;;12.75;nan;101296.47;5073609;28;20653;-75
2021/09/29 04:52:09;;;;;;;19.03;6.10;;;;;;;12.71;nan;101305.63;5055090;28;20178;-74
2021/09/29 04:54:34;;;;;;;16.90;5.13;;;;;;;12.50;nan;101301.41;5055199;28;20250;-77
2021/09/29 04:56:59;;;;;;;11.87;5.20;;;;;;;12.56;nan;101298.41;5072925;28;20651;-76
2021/09/29 04:59:25;;;;;;;20.00;5.30;;;;;;;12.54;nan;101294.94;5054743;28;20175;-76
2021/09/29 05:01:50;;;;;;;7.53;5.63;;;;;;;12.64;nan;101301.56;5072956;28;20229;-76
2021/09/29 05:04:15;;;;;;;22.53;5.83;;;;;;;12.70;nan;101297.66;5073663;28;20207;-75
2021/09/29 05:06:41;;;;;;;10.10;5.80;;;;;;;12.78;nan;101293.63;5053933;28;20698;-65
2021/09/29 05:09:07;;;;;;;11.37;5.63;;;;;;;12.79;nan;101303.38;5071908;28;20171;-66
2021/09/29 05:11:48;;;;;;;14.93;6.57;;;;;;;13.15;nan;101302.28;5071790;28;20175;-66
2021/09/29 05:14:14;;;;;;;11.73;7.03;;;;;;;13.00;nan;101303.13;5071815;28;20299;-66
2021/09/29 05:16:40;;;;;;;15.37;6.43;;;;;;;13.18;nan;101294.13;5053866;28;20171;-66
2021/09/29 05:19:05;;;;;;;12.77;5.70;;;;;;;13.08;nan;101295.56;5071694;28;20266;-66
2021/09/29 05:21:32;;;;;;;10.83;5.90;;;;;;;13.31;nan;101295.13;5071880;28;20206;-67
2021/09/29 05:23:57;;;;;;;9.30;5.57;;;;;;;13.50;nan;101292.28;5071317;28;20195;-67
2021/09/29 05:26:23;;;;;;;16.67;6.00;;;;;;;13.66;nan;101290.44;5071393;28;20179;-67
2021/09/29 05:28:50;;;;;;;9.17;5.20;;;;;;;13.67;nan;101293.97;5071720;28;20167;-67
2021/09/29 05:31:16;;;;;;;8.23;5.57;;;;;;;13.57;nan;101284.75;5054486;28;20171;-74
2021/09/29 05:33:41;;;;;;;9.23;5.50;;;;;;;13.57;nan;101276.69;5072856;28;20191;-75
2021/09/29 05:36:06;;;;;;;9.80;5.80;;;;;;;13.72;nan;101276.66;5058241;28;20171;-74
2021/09/29 05:38:32;;;;;;;8.23;6.10;;;;;;;13.80;nan;101273.53;5040972;28;20182;-75
2021/09/29 05:40:57;;;;;;;11.13;6.50;;;;;;;13.88;nan;101263.19;5075627;28;20202;-75
2021/09/29 05:43:22;;;;;;;12.43;6.17;;;;;;;13.97;nan;101269.84;5075755;28;20203;-76
2021/09/29 05:45:48;;;;;;;6.63;5.30;;;;;;;14.12;nan;101265.34;5075783;28;20281;-78
2021/09/29 05:48:14;;;;;;;7.10;5.53;;;;;;;14.28;nan;101272.38;5076921;28;20203;-77
2021/09/29 05:50:39;;;;;;;8.40;6.37;;;;;;;14.39;nan;101279.78;5079213;28;20594;-76
2021/09/29 05:53:04;;;;;;;6.97;5.87;;;;;;;14.03;nan;101272.13;5076071;28;20216;-75
2021/09/29 05:55:30;;;;;;;6.70;5.20;;;;;;;14.24;nan;101278.03;5041697;28;20195;-75
2021/09/29 05:57:55;;;;;;;7.30;5.50;;;;;;;14.28;nan;101280.44;5076149;28;20174;-75
2021/09/29 06:00:20;;;;;;;6.07;5.40;;;;;;;14.38;nan;101272.69;5059660;28;20182;-76
2021/09/29 06:02:45;;;;;;;7.13;5.60;;;;;;;14.36;nan;101261.16;5076831;28;20198;-73
2021/09/29 06:05:11;;;;;;;9.27;6.20;;;;;;;14.54;nan;101262.75;5059294;28;20671;-76
2021/09/29 06:07:37;;;;;;;10.63;6.77;;;;;;;14.67;nan;101269.06;5077200;28;20224;-77
2021/09/29 06:10:03;;;;;;;8.27;6.67;;;;;;;14.75;nan;101257.84;5059855;28;20194;-75
2021/09/29 06:12:29;;;;;;;10.80;7.40;;;;;;;14.70;nan;101252.75;5058988;28;20703;-75
2021/09/29 06:14:55;;;;;;;14.40;6.90;;;;;;;14.96;nan;101253.78;5076379;28;20159;-74
2021/09/29 06:17:23;;;;;;;7.83;6.40;;;;;;;15.19;nan;101251.41;5058986;28;20178;-75
2021/09/29 06:19:50;;;;;;;11.47;7.40;;;;;;;15.28;nan;101251.69;5057827;28;20644;-75
2021/09/29 06:22:16;;;;;;;14.37;7.17;;;;;;;15.13;nan;101236.56;5057500;28;20265;-76
2021/09/29 06:24:42;;;;;;;10.37;6.70;;;;;;;14.97;nan;101246.59;5057781;28;20218;-76
2021/09/29 06:27:07;;;;;;;8.27;6.30;;;;;;;14.98;nan;101238.44;5057657;28;20171;-76
2021/09/29 06:29:32;;;;;;;11.23;6.67;;;;;;;15.16;nan;101236.34;5056902;28;20171;-75
2021/09/29 06:31:58;;;;;;;13.07;7.10;;;;;;;15.35;nan;101232.47;5057221;28;20188;-74
2021/09/29 06:34:23;;;;;;;9.07;7.17;;;;;;;15.48;nan;101225.28;5075415;28;20179;-75
2021/09/29 06:36:49;;;;;;;18.57;8.27;;;;;;;15.48;nan;101223.47;5074991;28;20249;-75
2021/09/29 06:39:14;;;;;;;13.27;8.83;;;;;;;15.44;nan;101231.84;5057171;28;20171;-76
2021/09/29 06:41:41;;;;;;;11.93;7.23;;;;;;;15.52;nan;101226.81;5075226;28;20175;-75
2021/09/29 06:44:07;;;;;;;13.30;7.70;;;;;;;15.58;nan;101226.41;5041320;28;20191;-75
2021/09/29 06:46:32;;;;;;;16.33;8.60;;;;;;;15.31;nan;101219.22;5057430;28;20179;-74
2021/09/29 06:48:58;;;;;;;15.53;8.30;;;;;;;15.52;nan;101221.44;5075460;28;20174;-74
2021/09/29 06:51:23;;;;;;;10.33;7.73;;;;;;;15.42;nan;101225.72;5075568;28;20167;-74
2021/09/29 06:53:48;;;;;;;16.27;9.20;;;;;;;15.79;nan;101216.91;5074538;28;20225;-75
2021/09/29 06:56:13;;;;;;;17.00;8.33;;;;;;;15.75;nan;101214.53;5075618;28;20175;-74
2021/09/29 06:58:39;;;;;;;14.50;7.47;;;;;;;15.93;nan;101232.94;5075437;28;20664;-75
2021/09/29 07:01:05;;;;;;;13.67;7.90;;;;;;;16.15;nan;101226.94;5075357;28;20175;-75
2021/09/29 07:03:30;;;;;;;14.63;8.37;;;;;;;15.87;nan;101217.22;5076836;28;20723;-75
2021/09/29 07:05:56;;;;;;;14.30;8.10;;;;;;;15.99;nan;101230.84;5058191;28;20226;-75
2021/09/29 07:08:22;;;;;;;15.17;8.40;;;;;;;15.98;nan;101229.06;5075627;28;20170;-75
2021/09/29 07:10:47;;;;;;;14.43;8.23;;;;;;;15.99;nan;101223.63;5057760;28;20202;-75
2021/09/29 07:13:12;;;;;;;14.20;7.93;;;;;;;16.27;nan;101214.44;5074364;28;20202;-74
2021/09/29 07:15:39;;;;;;;12.73;7.87;;;;;;;16.51;nan;101226.19;5073920;28;20246;-75
2021/09/29 07:18:07;;;;;;;14.37;7.53;;;;;;;16.37;nan;101220.94;5058328;28;20233;-75
2021/09/29 07:20:32;;;;;;;15.30;8.40;;;;;;;16.11;nan;101211.97;5074617;28;20254;-76
2021/09/29 07:22:58;;;;;;;14.63;8.10;;;;;;;15.77;nan;101212.59;5074500;28;20202;-76
2021/09/29 07:25:23;;;;;;;17.80;8.93;;;;;;;15.97;nan;101211.19;5074028;28;20565;-75
2021/09/29 07:27:49;;;;;;;12.13;8.00;;;;;;;16.02;nan;101209.94;5056148;28;20167;-75
2021/09/29 07:30:14;;;;;;;14.70;8.80;;;;;;;15.72;nan;101212.91;5057126;28;20171;-76
2021/09/29 07:32:39;;;;;;;12.80;8.50;;;;;;;15.37;nan;101209.00;5056115;28;20245;-75
2021/09/29 07:35:05;;;;;;;15.37;8.50;;;;;;;16.12;nan;101219.09;5073863;28;20171;-75
2021/09/29 07:37:30;;;;;;;14.47;8.67;;;;;;;16.16;nan;101207.13;5073867;28;20236;-74
2021/09/29 07:39:56;;;;;;;16.60;8.90;;;;;;;16.13;nan;101206.50;5056005;28;20178;-74
2021/09/29 07:42:21;;;;;;;21.83;10.63;;;;;;;16.12;nan;101204.75;5073847;28;20198;-74
2021/09/29 07:44:46;;;;;;;20.37;10.27;;;;;;;15.85;nan;101203.00;5073614;28;20206;-74
2021/09/29 07:47:12;;;;;;;14.60;10.00;;;;;;;16.02;nan;101203.69;5073731;28;20190;-74
2021/09/29 07:49:37;;;;;;;18.63;10.70;;;;;;;15.71;nan;101188.78;5074547;28;20167;-74
2021/09/29 07:52:03;;;;;;;21.33;11.90;;;;;;;15.87;nan;101198.38;5073622;28;20182;-74
2021/09/29 07:54:29;;;;;;;20.57;11.10;;;;;;;16.30;nan;101190.00;5073691;28;20179;-74
2021/09/29 07:56:54;;;;;;;17.50;10.33;;;;;;;16.46;nan;101179.84;5055294;28;20228;-75
2021/09/29 07:59:20;;;;;;;22.63;12.90;;;;;;;16.49;nan;101170.69;5073424;28;20250;-75
2021/09/29 08:01:45;;;;;;;28.57;14.03;;;;;;;16.34;nan;101166.38;5055617;28;20205;-75
2021/09/29 08:04:12;;;;;;;28.17;13.80;;;;;;;16.50;nan;101162.50;5073427;28;20242;-74
2021/09/29 08:06:37;;;;;;;30.20;13.10;;;;;;;16.89;nan;101163.28;5073606;28;20210;-75
2021/09/29 08:09:03;;;;;;;26.97;13.80;;;;;;;16.58;nan;101160.09;5074047;28;20175;-74
2021/09/29 08:11:28;;;;;;;35.20;16.97;;;;;;;16.26;nan;101161.56;5073815;28;20236;-74
2021/09/29 08:13:53;;;;;;;33.37;16.00;;;;;;;15.98;nan;101170.72;5055513;28;20209;-73
2021/09/29 08:16:19;;;;;;;30.60;17.10;;;;;;;16.21;nan;101164.56;5073432;28;20175;-75
2021/09/29 08:18:44;;;;;;;35.57;16.80;;;;;;;15.98;nan;101164.47;5073689;28;20228;-74
2021/09/29 08:21:15;;;;;;;35.17;19.73;;;;;;;15.82;nan;101154.78;5058852;28;20186;-75
2021/09/29 08:23:43;;;;;;;34.47;18.63;;;;;;;16.62;nan;101157.19;5075332;28;20279;-75
2021/09/29 08:29:03;;;;;;;35.67;18.53;;;;;;;16.52;nan;101130.06;5056201;28;20182;-73
2021/09/29 08:36:27;;;;;;;37.60;21.37;;;;;;;16.49;nan;101114.97;5073671;28;20167;-74
2021/09/29 08:41:27;;;;;;;45.47;22.97;;;;;;;16.05;nan;101115.50;5074595;28;20198;-74
2021/09/29 08:43:58;;;;;;;40.90;22.00;;;;;;;16.13;nan;101123.00;5074063;28;20654;-75
2021/09/29 08:46:33;;;;;;;40.13;23.30;;;;;;;16.45;nan;101116.16;5056186;28;20158;-75
2021/09/29 08:49:18;;;;;;;48.33;24.27;;;;;;;15.99;nan;101120.47;5073151;28;20316;-75
2021/09/29 09:16:18;;;;;;;44.77;25.27;;;;;;;16.58;nan;101095.44;5077177;28;20161;-75
2021/09/29 09:18:50;;;;;;;48.03;25.60;;;;;;;17.09;nan;101111.41;5077490;28;20235;-75
2021/09/29 09:21:17;;;;;;;45.97;24.27;;;;;;;17.08;nan;101106.13;5076476;28;20215;-75
2021/09/29 09:23:43;;;;;;;49.10;25.97;;;;;;;16.66;nan;101097.59;5058107;28;20260;-75
2021/09/29 09:26:14;;;;;;;52.60;25.13;;;;;;;16.63;nan;101096.91;5060021;28;20195;-75
2021/09/29 09:28:40;;;;;;;45.40;25.07;;;;;;;16.64;nan;101095.94;5077288;28;20179;-75
2021/09/29 09:31:11;;;;;;;58.23;26.80;;;;;;;16.67;nan;101090.34;5058377;28;20171;-75
2021/09/29 09:33:48;;;;;;;56.23;26.93;;;;;;;16.74;nan;101089.81;5041856;28;20227;-76
2021/09/29 09:36:13;;;;;;;51.73;25.37;;;;;;;16.77;nan;101081.50;5079545;28;20177;-77
2021/09/29 09:38:42;;;;;;;62.77;26.00;;;;;;;16.22;nan;101076.56;5060330;28;20175;-76
2021/09/29 09:41:07;;;;;;;75.53;28.80;;;;;;;15.97;nan;101100.84;5077724;28;20182;-76
2021/09/29 09:43:32;;;;;;;72.80;29.03;;;;;;;16.10;nan;101091.78;5077260;28;20194;-76
2021/09/29 09:46:02;;;;;;;78.53;28.10;;;;;;;16.38;nan;101089.81;5059072;28;20202;-76
2021/09/29 09:48:29;;;;;;;76.10;30.27;;;;;;;16.03;nan;101077.06;5059830;28;20190;-74
2021/09/29 09:51:03;;;;;;;95.10;31.27;;;;;;;16.00;nan;101069.19;5076198;28;20273;-75
2021/09/29 09:53:28;;;;;;;93.40;31.33;;;;;;;16.08;nan;101079.41;5075454;28;20198;-76
2021/09/29 09:55:53;;;;;;;117.37;34.10;;;;;;;15.90;nan;101079.75;5059809;28;20578;-77
2021/09/29 09:58:19;;;;;;;120.60;34.47;;;;;;;15.94;nan;101081.25;5077143;28;20757;-76
2021/09/29 10:00:44;;;;;;;141.10;35.63;;;;;;;15.84;nan;101084.69;5042510;28;20179;-74
2021/09/29 10:03:11;;;;;;;213.23;40.23;;;;;;;16.13;nan;101083.50;5075790;28;20214;-74
2021/09/29 10:05:38;;;;;;;162.07;35.80;;;;;;;16.42;nan;101077.81;5057343;28;20197;-73
2021/09/29 10:08:06;;;;;;;183.57;40.00;;;;;;;16.44;nan;101057.88;5058139;28;20258;-73
2021/09/29 10:10:39;;;;;;;161.60;37.27;;;;;;;16.46;nan;101053.22;5077132;28;20175;-75
2021/09/29 10:13:30;;;;;;;168.40;39.23;;;;;;;16.25;nan;101054.78;5058873;28;20664;-74
2021/09/29 10:27:16;;;;;;;131.00;37.60;;;;;;;16.80;nan;101045.34;5075209;28;20193;-76
2021/09/29 10:29:49;;;;;;;171.33;41.97;;;;;;;16.60;nan;101027.09;5057558;28;20205;-76
2021/09/29 10:35:08;;;;;;;147.23;39.93;;;;;;;16.67;nan;101022.97;5075273;28;20225;-75
2021/09/29 10:40:16;;;;;;;167.67;43.03;;;;;;;16.82;nan;101028.09;5075045;28;20201;-74
2021/09/29 10:43:33;;;;;;;198.23;45.43;;;;;;;16.75;nan;101026.84;5057108;28;20564;-74
2021/09/29 10:48:46;;;;;;;244.00;51.43;;;;;;;16.63;nan;101022.31;5075431;28;20186;-76
2021/09/29 10:51:39;;;;;;;209.17;48.67;;;;;;;16.46;nan;101018.22;5075585;28;20187;-75
2021/09/29 11:05:51;;;;;;;275.97;58.83;;;;;;;16.48;nan;101012.72;5059491;28;20233;-75
2021/09/29 11:11:18;;;;;;;328.77;65.13;;;;;;;16.31;nan;101003.16;5058911;28;20280;-74
2021/09/29 11:28:03;;;;;;;74.97;35.17;;;;;;;14.89;nan;100958.69;5073871;28;20640;-77
2021/09/29 11:30:36;;;;;;;102.80;39.33;;;;;;;15.26;nan;100973.97;5058646;28;20245;-75
2021/09/29 11:33:07;;;;;;;80.33;37.30;;;;;;;15.27;nan;100970.31;5073081;28;20195;-77
2021/09/29 11:35:53;;;;;;;69.37;33.63;;;;;;;15.33;nan;100961.81;5056372;28;20197;-76
2021/09/29 11:48:47;;;;;;;48.60;28.40;;;;;;;15.20;nan;100958.25;5056588;28;20170;-75
2021/09/29 11:49:39;;;;;;;39.27;25.10;;;;;;;15.57;nan;100942.19;5058967;28;20186;-74
2021/09/29 12:08:41;;;;;;;35.87;21.23;;;;;;;14.94;nan;100935.03;5073569;28;20216;-72
2021/09/29 12:11:13;;;;;;;27.73;19.60;;;;;;;15.00;nan;100939.97;5073412;28;20663;-73
2021/09/29 12:14:00;;;;;;;32.40;19.20;;;;;;;15.47;nan;100922.31;5073625;28;20195;-74
2021/09/29 12:16:25;;;;;;;24.03;17.40;;;;;;;15.11;nan;100915.88;5057757;28;20155;-72
2021/09/29 12:18:57;;;;;;;30.73;18.67;;;;;;;15.59;nan;100922.31;5073529;28;20532;-74
2021/09/29 12:22:05;;;;;;;32.87;20.10;;;;;;;15.72;nan;100919.59;5074254;28;20170;-73
2021/09/29 12:24:46;;;;;;;20.87;17.73;;;;;;;15.36;nan;100908.78;5065760;28;20680;-74
2021/09/29 12:30:28;;;;;;;25.83;18.33;;;;;;;15.18;nan;100900.19;5067296;28;20735;-71
2021/09/29 12:35:56;;;;;;;30.83;19.53;;;;;;;14.99;nan;100892.56;5026322;28;20186;-73
2021/09/29 12:38:35;;;;;;;24.93;17.80;;;;;;;14.85;nan;100890.81;5055864;28;20205;-72
2021/09/29 12:41:00;;;;;;;23.00;17.20;;;;;;;14.56;nan;100903.59;5057664;28;20170;-72
2021/09/29 12:43:27;;;;;;;25.23;20.20;;;;;;;14.56;nan;100908.97;5060043;28;20194;-73
2021/09/29 12:45:52;;;;;;;27.17;18.40;;;;;;;14.33;nan;100917.69;5060105;28;20189;-72
2021/09/29 12:48:22;;;;;;;31.30;20.47;;;;;;;14.31;nan;100911.56;5081889;28;20354;-74
2021/09/29 12:50:54;;;;;;;36.17;23.37;;;;;;;14.50;nan;100922.84;5059555;28;20628;-73
2021/09/29 12:56:15;;;;;;;34.97;24.53;;;;;;;14.40;nan;100906.41;5059380;28;20258;-74
2021/09/29 12:58:36;;;;;;;34.37;23.23;;;;;;;14.33;nan;100912.31;5061607;28;20191;-73
2021/09/29 13:01:02;;;;;;;44.50;25.20;;;;;;;14.39;nan;100917.25;5042011;28;20170;-73
2021/09/29 13:03:28;;;;;;;35.33;23.20;;;;;;;14.08;nan;100908.56;5042229;28;20206;-73
2021/09/29 13:05:55;;;;;;;40.33;25.03;;;;;;;14.20;nan;100924.84;5059094;28;20187;-75
2021/09/29 13:08:20;;;;;;;40.17;24.87;;;;;;;14.21;nan;100918.50;5059466;28;20175;-75
2021/09/29 13:10:46;;;;;;;45.07;26.43;;;;;;;14.14;nan;100917.22;5059247;28;20178;-75
2021/09/29 13:13:12;;;;;;;38.80;26.00;;;;;;;14.29;nan;100916.19;5077364;28;20194;-75
2021/09/29 13:15:43;;;;;;;50.50;27.90;;;;;;;14.45;nan;100921.38;5058997;28;20163;-77
2021/09/29 13:18:17;;;;;;;43.43;26.90;;;;;;;14.25;nan;100911.97;5077482;28;20617;-75
2021/09/29 13:20:45;;;;;;;44.03;27.50;;;;;;;14.02;nan;100906.31;5060604;28;20166;-73
2021/09/29 13:23:16;;;;;;;41.90;25.77;;;;;;;13.84;nan;100898.63;5077073;28;20191;-74
2021/09/29 13:39:00;;;;;;;43.87;26.67;;;;;;;14.02;nan;100930.44;5076813;28;20166;-73
2021/09/29 13:41:25;;;;;;;45.43;26.83;;;;;;;14.16;nan;100926.03;5076132;28;20258;-72
2021/09/29 13:43:54;;;;;;;41.33;26.17;;;;;;;14.03;nan;100917.91;5076306;28;20195;-73
2021/09/29 13:46:19;;;;;;;31.47;23.50;;;;;;;13.77;nan;100917.78;5076507;28;20294;-73